sensor_id;sensor_type;location;lat;lon;timestamp;pressure;altitude;pressure_sealevel;temperature;humidity
14117;BME280;7137;51.436;6.544;2023-09-19T00:02:58;100401.00;;;16.26;91.08
14117;BME280;7137;51.436;6.544;2023-09-19T00:06:00;100399.75;;;16.17;90.91
14117;BME280;7137;51.436;6.544;2023-09-19T00:09:02;100407.47;;;16.06;89.76
14117;BME280;7137;51.436;6.544;2023-09-19T00:12:06;100407.84;;;16.14;91.80
14117;BME280;7137;51.436;6.544;2023-09-19T00:15:09;100407.75;;;16.16;91.80
14117;BME280;7137;51.436;6.544;2023-09-19T00:18:11;100401.25;;;16.07;89.94
14117;BME280;7137;51.436;6.544;2023-09-19T00:21:15;100410.44;;;16.00;91.06
14117;BME280;7137;51.436;6.544;2023-09-19T00:24:17;100410.84;;;16.08;89.51
14117;BME280;7137;51.436;6.544;2023-09-19T00:27:20;100421.19;;;15.97;90.67
14117;BME280;7137;51.436;6.544;2023-09-19T00:30:22;100416.56;;;16.00;92.72
14117;BME280;7137;51.436;6.544;2023-09-19T00:33:24;100418.53;;;15.97;92.38
14117;BME280;7137;51.436;6.544;2023-09-19T00:36:26;100413.00;;;16.01;92.57
14117;BME280;7137;51.436;6.544;2023-09-19T00:39:29;100423.16;;;15.93;91.92
14117;BME280;7137;51.436;6.544;2023-09-19T00:42:33;100430.81;;;15.82;93.03
14117;BME280;7137;51.436;6.544;2023-09-19T00:45:36;100432.69;;;15.80;92.99
14117;BME280;7137;51.436;6.544;2023-09-19T00:48:40;100429.88;;;15.83;92.09
14117;BME280;7137;51.436;6.544;2023-09-19T00:51:44;100435.56;;;15.76;91.94
14117;BME280;7137;51.436;6.544;2023-09-19T00:54:47;100442.38;;;15.80;92.09
14117;BME280;7137;51.436;6.544;2023-09-19T00:57:50;100436.31;;;15.63;94.39
14117;BME280;7137;51.436;6.544;2023-09-19T01:00:53;100447.84;;;15.61;93.09
14117;BME280;7137;51.436;6.544;2023-09-19T01:03:54;100448.06;;;15.56;95.45
14117;BME280;7137;51.436;6.544;2023-09-19T01:06:56;100453.25;;;15.58;93.71
14117;BME280;7137;51.436;6.544;2023-09-19T01:09:59;100454.94;;;15.59;95.25
14117;BME280;7137;51.436;6.544;2023-09-19T01:13:06;100451.53;;;15.57;94.44
14117;BME280;7137;51.436;6.544;2023-09-19T01:16:19;100464.31;;;15.49;95.22
14117;BME280;7137;51.436;6.544;2023-09-19T01:23:18;100465.06;;;15.51;92.81
14117;BME280;7137;51.436;6.544;2023-09-19T01:26:31;100476.38;;;15.53;93.91
14117;BME280;7137;51.436;6.544;2023-09-19T01:29:44;100479.41;;;15.45;93.70
14117;BME280;7137;51.436;6.544;2023-09-19T01:32:49;100478.59;;;15.60;94.26
14117;BME280;7137;51.436;6.544;2023-09-19T01:39:38;100477.31;;;15.36;93.66
14117;BME280;7137;51.436;6.544;2023-09-19T01:42:43;100496.22;;;15.42;92.50
14117;BME280;7137;51.436;6.544;2023-09-19T01:45:51;100490.13;;;15.42;92.19
14117;BME280;7137;51.436;6.544;2023-09-19T01:49:06;100489.53;;;15.37;91.52
14117;BME280;7137;51.436;6.544;2023-09-19T01:52:13;100492.91;;;15.39;92.38
14117;BME280;7137;51.436;6.544;2023-09-19T01:55:17;100490.78;;;15.30;92.46
14117;BME280;7137;51.436;6.544;2023-09-19T01:58:21;100493.75;;;15.24;92.12
14117;BME280;7137;51.436;6.544;2023-09-19T02:01:28;100503.75;;;15.33;91.78
14117;BME280;7137;51.436;6.544;2023-09-19T02:04:32;100498.44;;;15.34;91.64
14117;BME280;7137;51.436;6.544;2023-09-19T02:07:35;100506.91;;;15.24;90.30
14117;BME280;7137;51.436;6.544;2023-09-19T02:10:38;100506.28;;;15.19;90.79
14117;BME280;7137;51.436;6.544;2023-09-19T02:13:41;100505.13;;;15.24;91.09
14117;BME280;7137;51.436;6.544;2023-09-19T02:16:43;100507.94;;;15.21;88.85
14117;BME280;7137;51.436;6.544;2023-09-19T02:19:46;100508.28;;;15.31;89.29
14117;BME280;7137;51.436;6.544;2023-09-19T02:22:47;100514.06;;;15.22;88.08
14117;BME280;7137;51.436;6.544;2023-09-19T02:25:53;100518.22;;;15.26;88.89
14117;BME280;7137;51.436;6.544;2023-09-19T02:28:55;100509.63;;;15.22;88.17
14117;BME280;7137;51.436;6.544;2023-09-19T02:31:56;100515.75;;;15.23;86.94
14117;BME280;7137;51.436;6.544;2023-09-19T02:34:59;100515.22;;;15.32;86.57
14117;BME280;7137;51.436;6.544;2023-09-19T02:38:00;100520.84;;;15.26;84.76
14117;BME280;7137;51.436;6.544;2023-09-19T02:41:02;100523.28;;;15.29;86.51
14117;BME280;7137;51.436;6.544;2023-09-19T02:44:04;100528.81;;;15.24;84.81
14117;BME280;7137;51.436;6.544;2023-09-19T02:47:07;100525.34;;;15.24;84.34
14117;BME280;7137;51.436;6.544;2023-09-19T02:50:11;100533.06;;;15.27;83.80
14117;BME280;7137;51.436;6.544;2023-09-19T02:53:13;100529.13;;;15.18;83.72
14117;BME280;7137;51.436;6.544;2023-09-19T02:56:15;100537.66;;;15.23;83.13
14117;BME280;7137;51.436;6.544;2023-09-19T02:59:16;100541.31;;;15.21;83.77
14117;BME280;7137;51.436;6.544;2023-09-19T03:02:19;100541.22;;;15.22;84.67
14117;BME280;7137;51.436;6.544;2023-09-19T03:05:25;100541.53;;;15.16;84.33
14117;BME280;7137;51.436;6.544;2023-09-19T03:12:27;100533.97;;;15.10;83.61
14117;BME280;7137;51.436;6.544;2023-09-19T03:15:28;100536.13;;;15.02;84.86
14117;BME280;7137;51.436;6.544;2023-09-19T03:18:30;100537.63;;;15.07;84.18
14117;BME280;7137;51.436;6.544;2023-09-19T03:21:33;100542.16;;;15.04;84.36
14117;BME280;7137;51.436;6.544;2023-09-19T03:24:35;100545.22;;;14.96;84.92
14117;BME280;7137;51.436;6.544;2023-09-19T03:27:37;100544.88;;;15.02;85.44
14117;BME280;7137;51.436;6.544;2023-09-19T03:30:39;100548.19;;;15.06;85.52
14117;BME280;7137;51.436;6.544;2023-09-19T03:33:41;100562.16;;;15.08;84.10
14117;BME280;7137;51.436;6.544;2023-09-19T03:36:43;100554.72;;;14.99;85.92
14117;BME280;7137;51.436;6.544;2023-09-19T03:39:45;100562.09;;;14.92;85.34
14117;BME280;7137;51.436;6.544;2023-09-19T03:42:46;100556.97;;;15.06;86.07
14117;BME280;7137;51.436;6.544;2023-09-19T03:45:48;100560.22;;;14.77;87.65
14117;BME280;7137;51.436;6.544;2023-09-19T03:48:51;100553.19;;;14.95;87.46
14117;BME280;7137;51.436;6.544;2023-09-19T03:51:53;100550.00;;;14.88;87.44
14117;BME280;7137;51.436;6.544;2023-09-19T03:54:55;100548.88;;;14.94;88.02
14117;BME280;7137;51.436;6.544;2023-09-19T03:57:56;100554.00;;;14.79;89.40
14117;BME280;7137;51.436;6.544;2023-09-19T04:00:58;100554.19;;;14.75;89.68
14117;BME280;7137;51.436;6.544;2023-09-19T04:03:59;100551.81;;;14.70;90.60
14117;BME280;7137;51.436;6.544;2023-09-19T04:07:09;100553.91;;;14.64;91.75
14117;BME280;7137;51.436;6.544;2023-09-19T04:10:11;100548.03;;;14.59;91.91
14117;BME280;7137;51.436;6.544;2023-09-19T04:13:14;100544.94;;;14.68;92.66
14117;BME280;7137;51.436;6.544;2023-09-19T04:16:16;100546.16;;;14.61;93.76
14117;BME280;7137;51.436;6.544;2023-09-19T04:19:18;100543.03;;;14.54;94.34
14117;BME280;7137;51.436;6.544;2023-09-19T04:22:20;100544.94;;;14.68;94.53
14117;BME280;7137;51.436;6.544;2023-09-19T04:25:22;100549.44;;;14.66;94.52
14117;BME280;7137;51.436;6.544;2023-09-19T04:28:24;100539.69;;;14.68;94.24
14117;BME280;7137;51.436;6.544;2023-09-19T04:31:25;100543.94;;;14.70;94.83
14117;BME280;7137;51.436;6.544;2023-09-19T04:34:28;100546.41;;;14.73;94.33
14117;BME280;7137;51.436;6.544;2023-09-19T04:37:32;100543.84;;;14.72;94.51
14117;BME280;7137;51.436;6.544;2023-09-19T04:40:34;100554.44;;;14.70;94.38
14117;BME280;7137;51.436;6.544;2023-09-19T04:43:35;100556.69;;;14.78;94.32
14117;BME280;7137;51.436;6.544;2023-09-19T04:46:36;100563.28;;;14.69;94.43
14117;BME280;7137;51.436;6.544;2023-09-19T04:49:38;100562.19;;;14.73;94.22
14117;BME280;7137;51.436;6.544;2023-09-19T04:52:42;100566.91;;;14.84;93.72
14117;BME280;7137;51.436;6.544;2023-09-19T04:55:44;100558.09;;;14.68;94.09
14117;BME280;7137;51.436;6.544;2023-09-19T04:58:46;100562.88;;;14.60;93.91
14117;BME280;7137;51.436;6.544;2023-09-19T05:01:48;100581.75;;;14.68;95.17
14117;BME280;7137;51.436;6.544;2023-09-19T05:04:49;100590.50;;;14.68;95.46
14117;BME280;7137;51.436;6.544;2023-09-19T05:07:52;100593.28;;;14.65;94.91
14117;BME280;7137;51.436;6.544;2023-09-19T05:10:54;100603.72;;;14.67;93.84
14117;BME280;7137;51.436;6.544;2023-09-19T05:13:56;100613.31;;;14.68;93.37
14117;BME280;7137;51.436;6.544;2023-09-19T05:17:01;100606.09;;;14.71;93.73
14117;BME280;7137;51.436;6.544;2023-09-19T05:20:05;100626.44;;;14.68;92.84
14117;BME280;7137;51.436;6.544;2023-09-19T05:23:16;100625.28;;;14.73;92.97
14117;BME280;7137;51.436;6.544;2023-09-19T05:26:21;100629.59;;;14.92;92.79
14117;BME280;7137;51.436;6.544;2023-09-19T05:29:22;100631.09;;;14.97;92.20
14117;BME280;7137;51.436;6.544;2023-09-19T05:32:24;100630.16;;;14.98;92.46
14117;BME280;7137;51.436;6.544;2023-09-19T05:35:25;100645.69;;;15.03;91.53
14117;BME280;7137;51.436;6.544;2023-09-19T05:38:28;100647.97;;;15.10;90.70
14117;BME280;7137;51.436;6.544;2023-09-19T05:41:30;100652.69;;;15.21;89.93
14117;BME280;7137;51.436;6.544;2023-09-19T05:44:32;100645.53;;;15.23;89.79
14117;BME280;7137;51.436;6.544;2023-09-19T05:47:34;100644.91;;;15.18;90.29
14117;BME280;7137;51.436;6.544;2023-09-19T05:50:36;100642.16;;;15.21;89.03
14117;BME280;7137;51.436;6.544;2023-09-19T05:53:38;100649.00;;;15.41;90.63
14117;BME280;7137;51.436;6.544;2023-09-19T05:56:43;100644.56;;;15.41;89.58
14117;BME280;7137;51.436;6.544;2023-09-19T05:59:47;100658.25;;;15.48;87.67
14117;BME280;7137;51.436;6.544;2023-09-19T06:02:51;100653.44;;;15.56;89.42
14117;BME280;7137;51.436;6.544;2023-09-19T06:05:53;100656.66;;;15.63;86.53
14117;BME280;7137;51.436;6.544;2023-09-19T06:08:58;100653.69;;;15.52;88.07
14117;BME280;7137;51.436;6.544;2023-09-19T06:12:00;100644.94;;;15.51;88.35
14117;BME280;7137;51.436;6.544;2023-09-19T06:15:04;100638.84;;;15.51;88.09
14117;BME280;7137;51.436;6.544;2023-09-19T06:18:11;100648.09;;;15.58;86.81
14117;BME280;7137;51.436;6.544;2023-09-19T06:21:15;100646.25;;;15.60;86.71
14117;BME280;7137;51.436;6.544;2023-09-19T06:24:18;100650.91;;;15.55;86.85
14117;BME280;7137;51.436;6.544;2023-09-19T06:27:19;100650.53;;;15.62;86.68
14117;BME280;7137;51.436;6.544;2023-09-19T06:30:23;100646.47;;;15.55;88.00
14117;BME280;7137;51.436;6.544;2023-09-19T06:33:25;100649.50;;;15.65;87.83
14117;BME280;7137;51.436;6.544;2023-09-19T06:36:26;100651.72;;;15.72;86.73
14117;BME280;7137;51.436;6.544;2023-09-19T06:39:30;100641.91;;;15.92;86.57
14117;BME280;7137;51.436;6.544;2023-09-19T06:42:31;100652.00;;;15.84;88.31
14117;BME280;7137;51.436;6.544;2023-09-19T06:45:33;100658.38;;;15.80;88.36
14117;BME280;7137;51.436;6.544;2023-09-19T06:48:34;100655.22;;;15.89;87.98
14117;BME280;7137;51.436;6.544;2023-09-19T06:51:36;100657.09;;;16.02;86.54
14117;BME280;7137;51.436;6.544;2023-09-19T06:54:39;100665.44;;;16.11;86.98
14117;BME280;7137;51.436;6.544;2023-09-19T06:57:41;100662.47;;;16.01;85.90
14117;BME280;7137;51.436;6.544;2023-09-19T07:00:43;100669.53;;;16.16;87.75
14117;BME280;7137;51.436;6.544;2023-09-19T07:03:45;100659.50;;;16.23;85.55
14117;BME280;7137;51.436;6.544;2023-09-19T07:06:49;100667.88;;;16.45;85.29
14117;BME280;7137;51.436;6.544;2023-09-19T07:09:52;100666.16;;;16.60;86.17
14117;BME280;7137;51.436;6.544;2023-09-19T07:12:57;100670.88;;;16.55;85.68
14117;BME280;7137;51.436;6.544;2023-09-19T07:15:59;100670.38;;;16.48;85.72
14117;BME280;7137;51.436;6.544;2023-09-19T07:19:00;100686.78;;;16.69;84.31
14117;BME280;7137;51.436;6.544;2023-09-19T07:22:02;100693.66;;;16.72;84.09
14117;BME280;7137;51.436;6.544;2023-09-19T07:25:05;100696.81;;;16.78;84.15
14117;BME280;7137;51.436;6.544;2023-09-19T07:28:07;100682.69;;;16.63;84.35
14117;BME280;7137;51.436;6.544;2023-09-19T07:31:08;100683.03;;;16.73;84.83
14117;BME280;7137;51.436;6.544;2023-09-19T07:34:11;100678.16;;;16.66;82.66
14117;BME280;7137;51.436;6.544;2023-09-19T07:37:14;100671.06;;;16.98;82.72
14117;BME280;7137;51.436;6.544;2023-09-19T07:40:17;100669.56;;;17.08;82.92
14117;BME280;7137;51.436;6.544;2023-09-19T07:43:19;100680.94;;;16.94;82.31
14117;BME280;7137;51.436;6.544;2023-09-19T07:46:20;100680.53;;;17.30;82.55
14117;BME280;7137;51.436;6.544;2023-09-19T07:49:24;100687.31;;;17.78;81.19
14117;BME280;7137;51.436;6.544;2023-09-19T07:52:26;100689.88;;;17.80;78.20
14117;BME280;7137;51.436;6.544;2023-09-19T07:55:29;100690.53;;;17.69;79.59
14117;BME280;7137;51.436;6.544;2023-09-19T07:58:30;100691.13;;;17.59;80.83
14117;BME280;7137;51.436;6.544;2023-09-19T08:01:33;100694.25;;;17.51;79.85
14117;BME280;7137;51.436;6.544;2023-09-19T08:04:35;100686.47;;;17.92;79.26
14117;BME280;7137;51.436;6.544;2023-09-19T08:07:37;100698.41;;;18.12;76.50
14117;BME280;7137;51.436;6.544;2023-09-19T08:10:40;100687.00;;;18.53;75.52
14117;BME280;7137;51.436;6.544;2023-09-19T08:13:42;100693.38;;;18.36;75.15
14117;BME280;7137;51.436;6.544;2023-09-19T08:16:45;100701.56;;;18.46;77.09
14117;BME280;7137;51.436;6.544;2023-09-19T08:19:47;100692.41;;;17.82;78.04
14117;BME280;7137;51.436;6.544;2023-09-19T08:22:53;100704.09;;;18.88;74.01
14117;BME280;7137;51.436;6.544;2023-09-19T08:25:57;100710.13;;;19.43;72.67
14117;BME280;7137;51.436;6.544;2023-09-19T08:29:03;100715.22;;;19.46;70.46
14117;BME280;7137;51.436;6.544;2023-09-19T08:32:08;100720.75;;;19.81;70.54
14117;BME280;7137;51.436;6.544;2023-09-19T08:35:10;100717.06;;;19.71;70.16
14117;BME280;7137;51.436;6.544;2023-09-19T08:38:12;100726.50;;;19.62;69.95
14117;BME280;7137;51.436;6.544;2023-09-19T08:41:17;100731.25;;;19.57;70.16
14117;BME280;7137;51.436;6.544;2023-09-19T08:44:18;100727.59;;;19.33;71.35
14117;BME280;7137;51.436;6.544;2023-09-19T08:47:28;100731.91;;;19.86;68.23
14117;BME280;7137;51.436;6.544;2023-09-19T08:50:41;100719.59;;;19.85;70.20
14117;BME280;7137;51.436;6.544;2023-09-19T08:53:51;100729.28;;;19.34;68.23
14117;BME280;7137;51.436;6.544;2023-09-19T08:56:56;100714.97;;;20.12;67.36
14117;BME280;7137;51.436;6.544;2023-09-19T09:00:04;100721.25;;;20.61;65.11
14117;BME280;7137;51.436;6.544;2023-09-19T09:03:10;100726.72;;;20.34;65.35
14117;BME280;7137;51.436;6.544;2023-09-19T09:06:14;100719.22;;;20.15;66.26
14117;BME280;7137;51.436;6.544;2023-09-19T09:09:17;100710.44;;;19.51;68.68
14117;BME280;7137;51.436;6.544;2023-09-19T09:12:20;100712.81;;;20.30;69.39
14117;BME280;7137;51.436;6.544;2023-09-19T09:15:23;100719.00;;;20.55;67.50
14117;BME280;7137;51.436;6.544;2023-09-19T09:18:24;100714.31;;;21.06;66.03
14117;BME280;7137;51.436;6.544;2023-09-19T09:21:26;100707.63;;;20.89;64.53
14117;BME280;7137;51.436;6.544;2023-09-19T09:24:29;100707.28;;;20.46;65.79
14117;BME280;7137;51.436;6.544;2023-09-19T09:27:35;100703.25;;;19.91;67.18
14117;BME280;7137;51.436;6.544;2023-09-19T09:30:37;100717.69;;;19.74;68.45
14117;BME280;7137;51.436;6.544;2023-09-19T09:33:38;100718.56;;;20.11;68.10
14117;BME280;7137;51.436;6.544;2023-09-19T09:36:41;100712.38;;;19.87;67.20
14117;BME280;7137;51.436;6.544;2023-09-19T09:39:49;100717.53;;;19.50;68.04
14117;BME280;7137;51.436;6.544;2023-09-19T09:42:53;100721.50;;;19.58;70.06
14117;BME280;7137;51.436;6.544;2023-09-19T09:46:12;100710.72;;;20.10;68.97
14117;BME280;7137;51.436;6.544;2023-09-19T09:49:32;100705.84;;;20.53;67.87
14117;BME280;7137;51.436;6.544;2023-09-19T09:52:44;100716.59;;;20.99;65.93
14117;BME280;7137;51.436;6.544;2023-09-19T09:56:00;100716.13;;;21.05;65.25
14117;BME280;7137;51.436;6.544;2023-09-19T09:59:04;100708.06;;;20.59;65.80
14117;BME280;7137;51.436;6.544;2023-09-19T10:02:05;100703.38;;;21.22;63.29
14117;BME280;7137;51.436;6.544;2023-09-19T10:05:12;100708.41;;;21.49;65.01
14117;BME280;7137;51.436;6.544;2023-09-19T10:08:21;100709.97;;;21.05;65.14
14117;BME280;7137;51.436;6.544;2023-09-19T10:11:22;100701.94;;;20.59;65.02
14117;BME280;7137;51.436;6.544;2023-09-19T10:14:35;100691.75;;;20.40;67.04
14117;BME280;7137;51.436;6.544;2023-09-19T10:17:39;100702.84;;;21.05;64.52
14117;BME280;7137;51.436;6.544;2023-09-19T10:20:45;100692.88;;;20.85;64.75
14117;BME280;7137;51.436;6.544;2023-09-19T10:23:50;100687.78;;;20.82;62.82
14117;BME280;7137;51.436;6.544;2023-09-19T10:26:56;100682.59;;;21.16;63.36
14117;BME280;7137;51.436;6.544;2023-09-19T10:30:00;100683.63;;;21.26;62.79
14117;BME280;7137;51.436;6.544;2023-09-19T10:33:03;100687.69;;;20.95;62.60
14117;BME280;7137;51.436;6.544;2023-09-19T10:36:06;100681.94;;;21.01;61.97
14117;BME280;7137;51.436;6.544;2023-09-19T10:39:08;100668.81;;;20.75;62.21
14117;BME280;7137;51.436;6.544;2023-09-19T10:42:17;100678.31;;;21.02;65.61
14117;BME280;7137;51.436;6.544;2023-09-19T10:45:24;100684.00;;;20.97;62.39
14117;BME280;7137;51.436;6.544;2023-09-19T10:48:26;100678.09;;;21.05;63.67
14117;BME280;7137;51.436;6.544;2023-09-19T10:51:31;100681.44;;;20.96;63.66
14117;BME280;7137;51.436;6.544;2023-09-19T10:54:34;100682.69;;;20.79;63.64
14117;BME280;7137;51.436;6.544;2023-09-19T10:57:37;100682.09;;;20.75;63.66
14117;BME280;7137;51.436;6.544;2023-09-19T11:01:01;100689.81;;;20.79;65.39
14117;BME280;7137;51.436;6.544;2023-09-19T11:04:22;100678.72;;;20.37;64.13
14117;BME280;7137;51.436;6.544;2023-09-19T11:07:24;100683.22;;;20.84;65.18
14117;BME280;7137;51.436;6.544;2023-09-19T11:10:44;100688.25;;;20.76;61.44
14117;BME280;7137;51.436;6.544;2023-09-19T11:14:17;100686.09;;;20.81;61.13
14117;BME280;7137;51.436;6.544;2023-09-19T11:17:32;100687.09;;;20.91;61.52
14117;BME280;7137;51.436;6.544;2023-09-19T11:20:33;100689.38;;;20.61;61.53
14117;BME280;7137;51.436;6.544;2023-09-19T11:23:41;100693.91;;;20.71;63.79
14117;BME280;7137;51.436;6.544;2023-09-19T11:26:44;100688.78;;;20.57;61.68
14117;BME280;7137;51.436;6.544;2023-09-19T11:30:27;100688.66;;;20.94;61.11
14117;BME280;7137;51.436;6.544;2023-09-19T11:33:34;100674.72;;;21.03;61.37
14117;BME280;7137;51.436;6.544;2023-09-19T11:36:38;100674.69;;;21.27;60.24
14117;BME280;7137;51.436;6.544;2023-09-19T11:40:06;100685.34;;;21.60;59.92
14117;BME280;7137;51.436;6.544;2023-09-19T11:43:29;100677.38;;;21.72;58.38
14117;BME280;7137;51.436;6.544;2023-09-19T11:46:51;100670.75;;;21.20;58.13
14117;BME280;7137;51.436;6.544;2023-09-19T11:49:55;100664.44;;;20.98;59.93
14117;BME280;7137;51.436;6.544;2023-09-19T11:52:59;100651.03;;;21.11;58.42
14117;BME280;7137;51.436;6.544;2023-09-19T11:56:05;100655.75;;;21.43;60.30
14117;BME280;7137;51.436;6.544;2023-09-19T11:59:10;100646.25;;;21.16;57.95
14117;BME280;7137;51.436;6.544;2023-09-19T12:02:27;100657.03;;;21.37;58.22
14117;BME280;7137;51.436;6.544;2023-09-19T12:05:33;100649.69;;;21.29;60.40
14117;BME280;7137;51.436;6.544;2023-09-19T12:08:34;100645.72;;;21.00;60.02
14117;BME280;7137;51.436;6.544;2023-09-19T12:11:42;100640.03;;;21.28;59.32
14117;BME280;7137;51.436;6.544;2023-09-19T12:14:47;100638.63;;;21.23;57.04
14117;BME280;7137;51.436;6.544;2023-09-19T12:17:49;100646.78;;;21.32;58.52
14117;BME280;7137;51.436;6.544;2023-09-19T12:20:52;100642.44;;;21.31;58.35
14117;BME280;7137;51.436;6.544;2023-09-19T12:24:04;100630.47;;;20.91;56.83
14117;BME280;7137;51.436;6.544;2023-09-19T12:27:06;100633.03;;;21.03;56.99
14117;BME280;7137;51.436;6.544;2023-09-19T12:30:09;100621.22;;;21.08;57.82
14117;BME280;7137;51.436;6.544;2023-09-19T12:33:17;100626.38;;;21.33;57.47
14117;BME280;7137;51.436;6.544;2023-09-19T12:36:22;100619.72;;;21.39;58.08
14117;BME280;7137;51.436;6.544;2023-09-19T12:39:29;100619.13;;;21.57;56.87
14117;BME280;7137;51.436;6.544;2023-09-19T12:42:31;100601.94;;;21.84;57.82
14117;BME280;7137;51.436;6.544;2023-09-19T12:45:36;100615.13;;;21.63;56.28
14117;BME280;7137;51.436;6.544;2023-09-19T12:48:39;100612.72;;;21.71;57.77
14117;BME280;7137;51.436;6.544;2023-09-19T12:51:46;100606.56;;;21.26;57.49
14117;BME280;7137;51.436;6.544;2023-09-19T12:54:48;100607.22;;;21.17;58.13
14117;BME280;7137;51.436;6.544;2023-09-19T12:58:08;100621.63;;;21.25;57.38
14117;BME280;7137;51.436;6.544;2023-09-19T13:01:14;100620.56;;;21.39;57.79
14117;BME280;7137;51.436;6.544;2023-09-19T13:04:16;100616.63;;;20.98;57.92
14117;BME280;7137;51.436;6.544;2023-09-19T13:07:44;100616.50;;;21.00;57.38
14117;BME280;7137;51.436;6.544;2023-09-19T13:11:07;100615.47;;;20.79;59.72
14117;BME280;7137;51.436;6.544;2023-09-19T13:14:14;100620.09;;;20.88;59.80
14117;BME280;7137;51.436;6.544;2023-09-19T13:17:16;100616.25;;;21.03;59.47
14117;BME280;7137;51.436;6.544;2023-09-19T13:20:23;100618.28;;;20.88;59.07
14117;BME280;7137;51.436;6.544;2023-09-19T13:23:30;100627.13;;;21.00;58.30
14117;BME280;7137;51.436;6.544;2023-09-19T13:26:32;100614.69;;;21.00;59.78
14117;BME280;7137;51.436;6.544;2023-09-19T13:29:33;100625.09;;;21.15;59.66
14117;BME280;7137;51.436;6.544;2023-09-19T13:32:35;100622.81;;;20.75;59.50
14117;BME280;7137;51.436;6.544;2023-09-19T13:35:38;100626.13;;;20.90;61.69
14117;BME280;7137;51.436;6.544;2023-09-19T13:38:41;100626.72;;;20.93;60.91
14117;BME280;7137;51.436;6.544;2023-09-19T13:41:44;100624.81;;;20.84;60.07
14117;BME280;7137;51.436;6.544;2023-09-19T13:44:47;100623.84;;;20.96;61.03
14117;BME280;7137;51.436;6.544;2023-09-19T13:47:49;100620.25;;;20.97;60.46
14117;BME280;7137;51.436;6.544;2023-09-19T13:50:50;100616.94;;;20.94;60.61
14117;BME280;7137;51.436;6.544;2023-09-19T13:53:53;100613.72;;;21.01;60.21
14117;BME280;7137;51.436;6.544;2023-09-19T13:56:55;100615.78;;;20.63;60.93
14117;BME280;7137;51.436;6.544;2023-09-19T13:59:56;100624.22;;;20.57;61.96
14117;BME280;7137;51.436;6.544;2023-09-19T14:02:57;100628.63;;;20.80;63.07
14117;BME280;7137;51.436;6.544;2023-09-19T14:06:02;100627.09;;;20.89;62.35
14117;BME280;7137;51.436;6.544;2023-09-19T14:09:05;100629.03;;;20.87;63.95
14117;BME280;7137;51.436;6.544;2023-09-19T14:12:08;100628.75;;;20.43;62.68
14117;BME280;7137;51.436;6.544;2023-09-19T14:15:10;100633.19;;;20.43;63.68
14117;BME280;7137;51.436;6.544;2023-09-19T14:18:12;100621.97;;;20.74;62.80
14117;BME280;7137;51.436;6.544;2023-09-19T14:21:13;100620.13;;;20.99;62.22
14117;BME280;7137;51.436;6.544;2023-09-19T14:24:17;100617.84;;;21.05;62.20
14117;BME280;7137;51.436;6.544;2023-09-19T14:27:19;100615.56;;;21.12;61.73
14117;BME280;7137;51.436;6.544;2023-09-19T14:30:20;100619.03;;;20.66;62.71
14117;BME280;7137;51.436;6.544;2023-09-19T14:33:22;100625.66;;;20.85;64.21
14117;BME280;7137;51.436;6.544;2023-09-19T14:36:23;100627.44;;;20.49;63.17
14117;BME280;7137;51.436;6.544;2023-09-19T14:39:27;100624.22;;;20.68;64.23
14117;BME280;7137;51.436;6.544;2023-09-19T14:42:29;100611.19;;;20.65;64.82
14117;BME280;7137;51.436;6.544;2023-09-19T14:45:30;100612.28;;;20.62;63.98
14117;BME280;7137;51.436;6.544;2023-09-19T14:48:32;100622.53;;;20.56;63.53
14117;BME280;7137;51.436;6.544;2023-09-19T14:51:34;100621.88;;;20.52;63.26
14117;BME280;7137;51.436;6.544;2023-09-19T14:54:38;100607.09;;;20.13;64.30
14117;BME280;7137;51.436;6.544;2023-09-19T14:57:42;100606.13;;;20.14;64.26
14117;BME280;7137;51.436;6.544;2023-09-19T15:00:45;100605.81;;;20.06;63.99
14117;BME280;7137;51.436;6.544;2023-09-19T15:03:46;100600.34;;;20.20;63.84
14117;BME280;7137;51.436;6.544;2023-09-19T15:06:49;100603.47;;;20.14;63.82
14117;BME280;7137;51.436;6.544;2023-09-19T15:09:56;100592.56;;;20.30;64.48
14117;BME280;7137;51.436;6.544;2023-09-19T15:12:58;100596.91;;;20.31;64.02
14117;BME280;7137;51.436;6.544;2023-09-19T15:16:00;100590.25;;;20.25;63.51
14117;BME280;7137;51.436;6.544;2023-09-19T15:19:02;100617.63;;;20.26;63.13
14117;BME280;7137;51.436;6.544;2023-09-19T15:22:04;100612.50;;;20.35;64.20
14117;BME280;7137;51.436;6.544;2023-09-19T15:25:08;100610.41;;;20.52;63.34
14117;BME280;7137;51.436;6.544;2023-09-19T15:28:10;100605.22;;;20.74;62.48
14117;BME280;7137;51.436;6.544;2023-09-19T15:31:12;100607.00;;;20.73;63.96
14117;BME280;7137;51.436;6.544;2023-09-19T15:34:14;100590.25;;;20.73;64.08
14117;BME280;7137;51.436;6.544;2023-09-19T15:37:16;100593.41;;;20.43;62.54
14117;BME280;7137;51.436;6.544;2023-09-19T15:40:19;100594.00;;;20.47;63.64
14117;BME280;7137;51.436;6.544;2023-09-19T15:43:23;100588.09;;;20.54;63.46
14117;BME280;7137;51.436;6.544;2023-09-19T15:46:25;100590.06;;;20.39;65.19
14117;BME280;7137;51.436;6.544;2023-09-19T15:49:28;100584.63;;;20.30;66.18
14117;BME280;7137;51.436;6.544;2023-09-19T15:52:29;100580.78;;;20.34;65.28
14117;BME280;7137;51.436;6.544;2023-09-19T15:55:38;100585.75;;;20.14;64.98
14117;BME280;7137;51.436;6.544;2023-09-19T15:58:40;100581.91;;;20.19;66.51
14117;BME280;7137;51.436;6.544;2023-09-19T16:01:43;100584.50;;;20.07;65.21
14117;BME280;7137;51.436;6.544;2023-09-19T16:04:45;100585.63;;;20.16;65.55
14117;BME280;7137;51.436;6.544;2023-09-19T16:07:46;100578.66;;;20.26;65.59
14117;BME280;7137;51.436;6.544;2023-09-19T16:10:49;100578.28;;;20.20;66.86
14117;BME280;7137;51.436;6.544;2023-09-19T16:13:52;100570.34;;;20.20;66.16
14117;BME280;7137;51.436;6.544;2023-09-19T16:16:53;100572.06;;;20.32;66.81
14117;BME280;7137;51.436;6.544;2023-09-19T16:19:55;100578.47;;;20.29;66.63
14117;BME280;7137;51.436;6.544;2023-09-19T16:22:56;100571.59;;;20.38;64.70
14117;BME280;7137;51.436;6.544;2023-09-19T16:26:03;100574.94;;;20.41;64.98
14117;BME280;7137;51.436;6.544;2023-09-19T16:29:06;100579.44;;;20.28;63.82